Terminal Aerodrome Forecast
Issued by NWS

Home | Current Version | Previous Version | Text Only | Print | Product List | Glossary On
Versions: 1 2 3 4 5 6 7 8 9 10 11 12 13 14 15 16 17 18 19 20 21
000
FTUS46 KSEW 091732
TAFHQM
TAF
KHQM 091732Z 0918/1018 04010KT 6SM -RA BR SCT018 OVC035
     FM092000 10008KT 4SM -RA BR BKN015 OVC030
      TEMPO 0922/1002 2SM RA BR BKN009 OVC015
     FM100400 20013KT 5SM -RA BR BKN022 OVC040
     FM100600 21013KT P6SM -SHRA BKN025 OVC050
     FM101300 17007KT P6SM SCT025 BKN050=

USA.gov is the U.S. government's official web portal to all federal, state and local government web resources and services.